sensor_id;sensor_type;location;lat;lon;timestamp;pressure;altitude;pressure_sealevel;temperature;humidity
18500;BME280;9379;52.134;11.576;2023-02-19T00:01:40;100844.50;;;11.78;99.21
18500;BME280;9379;52.134;11.576;2023-02-19T00:04:10;100857.53;;;11.31;100.00
18500;BME280;9379;52.134;11.576;2023-02-19T00:06:38;100856.31;;;11.45;100.00
18500;BME280;9379;52.134;11.576;2023-02-19T00:09:05;100848.72;;;11.30;100.00
18500;BME280;9379;52.134;11.576;2023-02-19T00:11:33;100852.03;;;11.93;100.00
18500;BME280;9379;52.134;11.576;2023-02-19T00:14:01;100852.03;;;12.13;99.01
18500;BME280;9379;52.134;11.576;2023-02-19T00:16:31;100826.03;;;11.76;99.54
18500;BME280;9379;52.134;11.576;2023-02-19T00:18:59;100844.19;;;12.11;99.21
18500;BME280;9379;52.134;11.576;2023-02-19T00:21:27;100837.19;;;12.20;98.13
18500;BME280;9379;52.134;11.576;2023-02-19T00:23:56;100836.91;;;12.42;97.61
18500;BME280;9379;52.134;11.576;2023-02-19T00:26:23;100819.91;;;12.24;98.02
18500;BME280;9379;52.134;11.576;2023-02-19T00:28:51;100825.69;;;12.39;97.32
18500;BME280;9379;52.134;11.576;2023-02-19T00:31:20;100820.75;;;12.44;96.88
18500;BME280;9379;52.134;11.576;2023-02-19T00:33:50;100812.47;;;12.56;96.33
18500;BME280;9379;52.134;11.576;2023-02-19T00:36:17;100807.66;;;12.70;95.46
18500;BME280;9379;52.134;11.576;2023-02-19T00:38:45;100801.00;;;12.17;97.97
18500;BME280;9379;52.134;11.576;2023-02-19T00:41:13;100793.28;;;11.95;99.57
18500;BME280;9379;52.134;11.576;2023-02-19T00:43:47;100777.16;;;11.96;100.00
18500;BME280;9379;52.134;11.576;2023-02-19T00:46:15;100768.31;;;11.86;100.00
18500;BME280;9379;52.134;11.576;2023-02-19T00:48:42;100770.28;;;12.23;99.23
18500;BME280;9379;52.134;11.576;2023-02-19T00:51:10;100766.63;;;12.34;97.78
18500;BME280;9379;52.134;11.576;2023-02-19T00:53:37;100761.47;;;11.93;99.97
18500;BME280;9379;52.134;11.576;2023-02-19T00:56:05;100756.69;;;11.97;100.00
18500;BME280;9379;52.134;11.576;2023-02-19T00:58:32;100770.69;;;12.28;99.02
18500;BME280;9379;52.134;11.576;2023-02-19T01:00:59;100774.06;;;12.01;99.83
18500;BME280;9379;52.134;11.576;2023-02-19T01:03:27;100766.47;;;12.25;98.96
18500;BME280;9379;52.134;11.576;2023-02-19T01:05:54;100769.06;;;11.38;100.00
18500;BME280;9379;52.134;11.576;2023-02-19T01:08:22;100769.03;;;11.98;100.00
18500;BME280;9379;52.134;11.576;2023-02-19T01:10:49;100756.53;;;12.27;99.27
18500;BME280;9379;52.134;11.576;2023-02-19T01:13:16;100756.38;;;11.71;100.00
18500;BME280;9379;52.134;11.576;2023-02-19T01:15:43;100754.13;;;11.76;100.00
18500;BME280;9379;52.134;11.576;2023-02-19T01:18:10;100738.13;;;11.66;100.00
18500;BME280;9379;52.134;11.576;2023-02-19T01:20:38;100741.50;;;11.59;100.00
18500;BME280;9379;52.134;11.576;2023-02-19T01:23:06;100733.91;;;11.35;100.00
18500;BME280;9379;52.134;11.576;2023-02-19T01:25:34;100738.69;;;11.51;100.00
18500;BME280;9379;52.134;11.576;2023-02-19T01:28:03;100733.28;;;11.81;100.00
18500;BME280;9379;52.134;11.576;2023-02-19T01:30:33;100729.44;;;11.55;100.00
18500;BME280;9379;52.134;11.576;2023-02-19T01:33:00;100709.63;;;10.69;100.00
18500;BME280;9379;52.134;11.576;2023-02-19T01:35:26;100725.84;;;10.75;100.00
18500;BME280;9379;52.134;11.576;2023-02-19T01:37:53;100729.00;;;11.40;100.00
18500;BME280;9379;52.134;11.576;2023-02-19T01:40:20;100702.44;;;10.60;100.00
18500;BME280;9379;52.134;11.576;2023-02-19T01:42:49;100714.97;;;10.78;100.00
18500;BME280;9379;52.134;11.576;2023-02-19T01:45:27;100712.31;;;10.78;100.00
18500;BME280;9379;52.134;11.576;2023-02-19T01:48:01;100711.38;;;10.89;100.00
18500;BME280;9379;52.134;11.576;2023-02-19T01:50:33;100699.28;;;10.75;100.00
18500;BME280;9379;52.134;11.576;2023-02-19T01:53:03;100700.03;;;11.37;100.00
18500;BME280;9379;52.134;11.576;2023-02-19T01:55:33;100689.63;;;11.15;100.00
18500;BME280;9379;52.134;11.576;2023-02-19T01:58:02;100676.75;;;11.39;100.00
18500;BME280;9379;52.134;11.576;2023-02-19T02:00:29;100662.47;;;11.30;100.00
18500;BME280;9379;52.134;11.576;2023-02-19T02:02:58;100652.88;;;10.49;100.00
18500;BME280;9379;52.134;11.576;2023-02-19T02:05:35;100661.50;;;10.41;100.00
18500;BME280;9379;52.134;11.576;2023-02-19T02:08:05;100628.69;;;10.52;100.00
18500;BME280;9379;52.134;11.576;2023-02-19T02:10:50;100649.03;;;11.13;100.00
18500;BME280;9379;52.134;11.576;2023-02-19T02:13:19;100646.50;;;11.30;100.00
18500;BME280;9379;52.134;11.576;2023-02-19T02:15:51;100627.75;;;11.61;100.00
18500;BME280;9379;52.134;11.576;2023-02-19T02:18:30;100619.16;;;10.90;100.00
18500;BME280;9379;52.134;11.576;2023-02-19T02:21:29;100620.97;;;10.79;100.00
18500;BME280;9379;52.134;11.576;2023-02-19T02:24:10;100623.34;;;10.92;100.00
18500;BME280;9379;52.134;11.576;2023-02-19T02:26:50;100598.59;;;10.92;100.00
18500;BME280;9379;52.134;11.576;2023-02-19T02:29:32;100608.53;;;11.09;100.00
18500;BME280;9379;52.134;11.576;2023-02-19T02:32:09;100604.75;;;11.02;100.00
18500;BME280;9379;52.134;11.576;2023-02-19T02:34:43;100625.88;;;10.94;100.00
18500;BME280;9379;52.134;11.576;2023-02-19T02:37:14;100620.31;;;11.16;100.00
18500;BME280;9379;52.134;11.576;2023-02-19T02:39:44;100630.00;;;11.36;100.00
18500;BME280;9379;52.134;11.576;2023-02-19T02:42:12;100630.25;;;11.53;100.00
18500;BME280;9379;52.134;11.576;2023-02-19T02:44:54;100612.56;;;10.84;100.00
18500;BME280;9379;52.134;11.576;2023-02-19T02:47:43;100620.31;;;11.16;100.00
18500;BME280;9379;52.134;11.576;2023-02-19T02:50:14;100629.53;;;11.22;100.00
18500;BME280;9379;52.134;11.576;2023-02-19T02:52:45;100637.25;;;11.44;100.00
18500;BME280;9379;52.134;11.576;2023-02-19T02:55:35;100639.75;;;11.07;100.00
18500;BME280;9379;52.134;11.576;2023-02-19T02:58:04;100645.59;;;10.81;100.00
18500;BME280;9379;52.134;11.576;2023-02-19T03:00:32;100647.78;;;10.67;100.00
18500;BME280;9379;52.134;11.576;2023-02-19T03:03:25;100633.31;;;11.19;100.00
18500;BME280;9379;52.134;11.576;2023-02-19T03:05:57;100632.88;;;10.95;100.00
18500;BME280;9379;52.134;11.576;2023-02-19T03:08:29;100623.25;;;11.42;100.00
18500;BME280;9379;52.134;11.576;2023-02-19T03:10:59;100634.16;;;11.20;100.00
18500;BME280;9379;52.134;11.576;2023-02-19T03:13:52;100633.72;;;11.05;100.00
18500;BME280;9379;52.134;11.576;2023-02-19T03:16:41;100637.41;;;11.43;100.00
18500;BME280;9379;52.134;11.576;2023-02-19T03:19:29;100642.41;;;11.07;100.00
18500;BME280;9379;52.134;11.576;2023-02-19T03:22:04;100656.47;;;10.69;100.00
18500;BME280;9379;52.134;11.576;2023-02-19T03:24:39;100658.59;;;10.44;100.00
18500;BME280;9379;52.134;11.576;2023-02-19T03:27:27;100663.53;;;10.07;100.00
18500;BME280;9379;52.134;11.576;2023-02-19T03:29:57;100666.25;;;9.75;100.00
18500;BME280;9379;52.134;11.576;2023-02-19T03:32:27;100646.13;;;9.73;100.00
18500;BME280;9379;52.134;11.576;2023-02-19T03:34:59;100649.84;;;9.70;100.00
18500;BME280;9379;52.134;11.576;2023-02-19T03:37:28;100633.03;;;9.81;100.00
18500;BME280;9379;52.134;11.576;2023-02-19T03:39:57;100648.00;;;9.61;100.00
18500;BME280;9379;52.134;11.576;2023-02-19T03:42:31;100658.22;;;9.33;100.00
18500;BME280;9379;52.134;11.576;2023-02-19T03:45:10;100652.19;;;8.77;100.00
18500;BME280;9379;52.134;11.576;2023-02-19T03:47:44;100662.47;;;8.48;100.00
18500;BME280;9379;52.134;11.576;2023-02-19T03:50:18;100659.81;;;8.70;100.00
18500;BME280;9379;52.134;11.576;2023-02-19T03:52:54;100659.66;;;8.27;100.00
18500;BME280;9379;52.134;11.576;2023-02-19T03:55:28;100667.09;;;8.00;100.00
18500;BME280;9379;52.134;11.576;2023-02-19T03:58:03;100677.88;;;8.54;100.00
18500;BME280;9379;52.134;11.576;2023-02-19T04:00:35;100678.09;;;8.85;100.00
18500;BME280;9379;52.134;11.576;2023-02-19T04:03:08;100688.81;;;8.94;100.00
18500;BME280;9379;52.134;11.576;2023-02-19T04:05:43;100679.59;;;8.20;100.00
18500;BME280;9379;52.134;11.576;2023-02-19T04:08:14;100686.91;;;8.40;100.00
18500;BME280;9379;52.134;11.576;2023-02-19T04:10:44;100706.84;;;8.22;100.00
18500;BME280;9379;52.134;11.576;2023-02-19T04:13:14;100700.84;;;7.96;100.00
18500;BME280;9379;52.134;11.576;2023-02-19T04:15:45;100700.50;;;8.36;100.00
18500;BME280;9379;52.134;11.576;2023-02-19T04:18:15;100693.34;;;7.79;100.00
18500;BME280;9379;52.134;11.576;2023-02-19T04:20:45;100714.50;;;8.14;100.00
18500;BME280;9379;52.134;11.576;2023-02-19T04:23:16;100737.19;;;7.94;100.00
18500;BME280;9379;52.134;11.576;2023-02-19T04:25:46;100744.00;;;7.85;100.00
18500;BME280;9379;52.134;11.576;2023-02-19T04:28:14;100742.91;;;8.12;100.00
18500;BME280;9379;52.134;11.576;2023-02-19T04:30:41;100754.06;;;8.39;100.00
18500;BME280;9379;52.134;11.576;2023-02-19T04:33:08;100756.59;;;8.06;100.00
18500;BME280;9379;52.134;11.576;2023-02-19T04:35:35;100741.84;;;7.55;100.00
18500;BME280;9379;52.134;11.576;2023-02-19T04:38:03;100746.34;;;7.42;100.00
18500;BME280;9379;52.134;11.576;2023-02-19T04:40:30;100740.75;;;7.58;100.00
18500;BME280;9379;52.134;11.576;2023-02-19T04:42:57;100763.31;;;7.51;100.00
18500;BME280;9379;52.134;11.576;2023-02-19T04:45:24;100772.69;;;7.68;100.00
18500;BME280;9379;52.134;11.576;2023-02-19T04:47:50;100776.53;;;7.51;100.00
18500;BME280;9379;52.134;11.576;2023-02-19T04:50:17;100782.13;;;7.59;100.00
18500;BME280;9379;52.134;11.576;2023-02-19T04:52:44;100795.81;;;7.77;100.00
18500;BME280;9379;52.134;11.576;2023-02-19T04:55:12;100796.97;;;7.73;99.83
18500;BME280;9379;52.134;11.576;2023-02-19T04:57:39;100809.50;;;7.34;100.00
18500;BME280;9379;52.134;11.576;2023-02-19T05:00:07;100817.44;;;7.21;100.00
18500;BME280;9379;52.134;11.576;2023-02-19T05:02:34;100820.72;;;7.85;100.00
18500;BME280;9379;52.134;11.576;2023-02-19T05:05:01;100826.13;;;7.23;100.00
18500;BME280;9379;52.134;11.576;2023-02-19T05:07:28;100835.75;;;7.61;100.00
18500;BME280;9379;52.134;11.576;2023-02-19T05:09:55;100830.53;;;7.96;99.33
18500;BME280;9379;52.134;11.576;2023-02-19T05:12:25;100828.72;;;7.97;98.49
18500;BME280;9379;52.134;11.576;2023-02-19T05:14:52;100834.19;;;7.82;97.23
18500;BME280;9379;52.134;11.576;2023-02-19T05:17:18;100836.13;;;8.04;97.18
18500;BME280;9379;52.134;11.576;2023-02-19T05:19:45;100842.13;;;7.82;97.05
18500;BME280;9379;52.134;11.576;2023-02-19T05:22:12;100845.50;;;8.08;97.34
18500;BME280;9379;52.134;11.576;2023-02-19T05:24:39;100842.13;;;8.06;97.02
18500;BME280;9379;52.134;11.576;2023-02-19T05:27:05;100848.63;;;7.42;97.93
18500;BME280;9379;52.134;11.576;2023-02-19T05:29:34;100843.75;;;7.72;97.52
18500;BME280;9379;52.134;11.576;2023-02-19T05:32:00;100840.16;;;7.97;96.63
18500;BME280;9379;52.134;11.576;2023-02-19T05:34:27;100829.03;;;7.44;98.65
18500;BME280;9379;52.134;11.576;2023-02-19T05:36:54;100846.44;;;7.59;97.34
18500;BME280;9379;52.134;11.576;2023-02-19T05:39:21;100846.91;;;7.41;98.42
18500;BME280;9379;52.134;11.576;2023-02-19T05:41:47;100842.22;;;7.57;97.09
18500;BME280;9379;52.134;11.576;2023-02-19T05:44:14;100850.97;;;7.21;99.05
18500;BME280;9379;52.134;11.576;2023-02-19T05:46:42;100850.16;;;7.57;97.16
18500;BME280;9379;52.134;11.576;2023-02-19T05:49:09;100856.19;;;7.59;96.30
18500;BME280;9379;52.134;11.576;2023-02-19T05:51:36;100863.03;;;7.61;96.29
18500;BME280;9379;52.134;11.576;2023-02-19T05:54:03;100876.00;;;7.53;95.88
18500;BME280;9379;52.134;11.576;2023-02-19T05:56:31;100876.44;;;7.35;96.76
18500;BME280;9379;52.134;11.576;2023-02-19T05:58:59;100886.28;;;7.32;97.84
18500;BME280;9379;52.134;11.576;2023-02-19T06:01:28;100883.84;;;7.17;98.34
18500;BME280;9379;52.134;11.576;2023-02-19T06:03:56;100895.91;;;7.08;98.64
18500;BME280;9379;52.134;11.576;2023-02-19T06:06:24;100901.34;;;6.67;99.38
18500;BME280;9379;52.134;11.576;2023-02-19T06:08:51;100895.47;;;7.01;99.42
18500;BME280;9379;52.134;11.576;2023-02-19T06:11:18;100898.75;;;7.05;98.13
18500;BME280;9379;52.134;11.576;2023-02-19T06:13:45;100899.91;;;7.39;96.40
18500;BME280;9379;52.134;11.576;2023-02-19T06:16:13;100902.81;;;7.73;94.83
18500;BME280;9379;52.134;11.576;2023-02-19T06:18:42;100919.78;;;7.94;95.04
18500;BME280;9379;52.134;11.576;2023-02-19T06:21:11;100927.03;;;7.79;95.13
18500;BME280;9379;52.134;11.576;2023-02-19T06:23:38;100942.09;;;7.28;96.48
18500;BME280;9379;52.134;11.576;2023-02-19T06:26:07;100948.44;;;7.25;97.11
18500;BME280;9379;52.134;11.576;2023-02-19T06:28:34;100960.59;;;7.28;96.21
18500;BME280;9379;52.134;11.576;2023-02-19T06:31:02;100966.84;;;7.14;95.63
18500;BME280;9379;52.134;11.576;2023-02-19T06:33:29;100976.25;;;7.69;94.94
18500;BME280;9379;52.134;11.576;2023-02-19T06:35:57;100989.28;;;7.34;94.52
18500;BME280;9379;52.134;11.576;2023-02-19T06:38:28;100992.34;;;7.41;95.59
18500;BME280;9379;52.134;11.576;2023-02-19T06:40:58;101005.84;;;7.87;94.60
18500;BME280;9379;52.134;11.576;2023-02-19T06:43:25;101007.16;;;7.69;95.01
18500;BME280;9379;52.134;11.576;2023-02-19T06:45:52;101017.94;;;7.91;93.75
18500;BME280;9379;52.134;11.576;2023-02-19T06:48:19;101017.91;;;7.15;95.64
18500;BME280;9379;52.134;11.576;2023-02-19T06:50:45;101016.25;;;7.52;95.31
18500;BME280;9379;52.134;11.576;2023-02-19T06:53:12;101021.44;;;6.88;95.71
18500;BME280;9379;52.134;11.576;2023-02-19T06:55:40;101041.56;;;7.03;96.84
18500;BME280;9379;52.134;11.576;2023-02-19T06:58:07;101042.91;;;7.49;95.54
18500;BME280;9379;52.134;11.576;2023-02-19T07:00:34;101053.72;;;7.71;93.38
18500;BME280;9379;52.134;11.576;2023-02-19T07:03:01;101059.22;;;7.55;94.30
18500;BME280;9379;52.134;11.576;2023-02-19T07:05:28;101070.66;;;7.56;94.25
18500;BME280;9379;52.134;11.576;2023-02-19T07:07:55;101073.16;;;7.32;94.08
18500;BME280;9379;52.134;11.576;2023-02-19T07:10:22;101077.31;;;8.00;94.64
18500;BME280;9379;52.134;11.576;2023-02-19T07:12:50;101076.88;;;7.93;94.39
18500;BME280;9379;52.134;11.576;2023-02-19T07:15:16;101089.38;;;7.66;94.17
18500;BME280;9379;52.134;11.576;2023-02-19T07:17:43;101098.56;;;7.60;93.49
18500;BME280;9379;52.134;11.576;2023-02-19T07:20:11;101101.81;;;7.51;95.02
18500;BME280;9379;52.134;11.576;2023-02-19T07:22:37;101104.56;;;7.37;94.10
18500;BME280;9379;52.134;11.576;2023-02-19T07:25:05;101103.03;;;7.98;93.71
18500;BME280;9379;52.134;11.576;2023-02-19T07:27:32;101114.16;;;8.15;93.51
18500;BME280;9379;52.134;11.576;2023-02-19T07:30:00;101108.22;;;7.86;93.07
18500;BME280;9379;52.134;11.576;2023-02-19T07:32:27;101131.19;;;7.99;92.90
18500;BME280;9379;52.134;11.576;2023-02-19T07:34:54;101128.97;;;8.18;92.28
18500;BME280;9379;52.134;11.576;2023-02-19T07:37:21;101127.06;;;7.95;92.13
18500;BME280;9379;52.134;11.576;2023-02-19T07:39:48;101142.22;;;8.05;92.64
18500;BME280;9379;52.134;11.576;2023-02-19T07:42:14;101141.59;;;8.40;91.23
18500;BME280;9379;52.134;11.576;2023-02-19T07:44:41;101147.06;;;8.62;90.62
18500;BME280;9379;52.134;11.576;2023-02-19T07:47:09;101153.88;;;8.03;92.38
18500;BME280;9379;52.134;11.576;2023-02-19T07:49:36;101154.09;;;8.38;92.51
18500;BME280;9379;52.134;11.576;2023-02-19T07:52:03;101155.69;;;8.40;91.48
18500;BME280;9379;52.134;11.576;2023-02-19T07:54:30;101166.59;;;8.10;93.23
18500;BME280;9379;52.134;11.576;2023-02-19T07:56:57;101156.13;;;8.34;92.13
18500;BME280;9379;52.134;11.576;2023-02-19T07:59:24;101165.78;;;8.85;90.72
18500;BME280;9379;52.134;11.576;2023-02-19T08:01:50;101179.22;;;8.94;90.47
18500;BME280;9379;52.134;11.576;2023-02-19T08:04:36;101188.19;;;8.42;91.22
18500;BME280;9379;52.134;11.576;2023-02-19T08:07:03;101184.16;;;8.24;93.12
18500;BME280;9379;52.134;11.576;2023-02-19T08:09:30;101197.97;;;7.77;93.97
18500;BME280;9379;52.134;11.576;2023-02-19T08:11:56;101188.28;;;7.63;94.84
18500;BME280;9379;52.134;11.576;2023-02-19T08:14:41;101212.63;;;8.08;94.13
18500;BME280;9379;52.134;11.576;2023-02-19T08:17:07;101216.88;;;7.58;95.59
18500;BME280;9379;52.134;11.576;2023-02-19T08:19:36;101226.56;;;7.84;93.85
18500;BME280;9379;52.134;11.576;2023-02-19T08:22:02;101233.69;;;7.57;94.68
18500;BME280;9379;52.134;11.576;2023-02-19T08:24:30;101230.22;;;7.69;95.35
18500;BME280;9379;52.134;11.576;2023-02-19T08:26:58;101244.59;;;8.05;94.11
18500;BME280;9379;52.134;11.576;2023-02-19T08:29:25;101238.09;;;7.83;94.38
18500;BME280;9379;52.134;11.576;2023-02-19T08:31:52;101239.25;;;7.25;95.57
18500;BME280;9379;52.134;11.576;2023-02-19T08:34:19;101252.56;;;7.65;94.47
18500;BME280;9379;52.134;11.576;2023-02-19T08:36:47;101253.19;;;7.69;93.86
18500;BME280;9379;52.134;11.576;2023-02-19T08:39:13;101229.06;;;8.26;92.49
18500;BME280;9379;52.134;11.576;2023-02-19T08:41:40;101231.31;;;8.44;92.48
18500;BME280;9379;52.134;11.576;2023-02-19T08:44:07;101270.38;;;8.28;91.96
18500;BME280;9379;52.134;11.576;2023-02-19T08:46:34;101276.84;;;8.24;92.54
18500;BME280;9379;52.134;11.576;2023-02-19T08:49:00;101277.69;;;8.25;92.69
18500;BME280;9379;52.134;11.576;2023-02-19T08:51:27;101275.72;;;8.41;92.84
18500;BME280;9379;52.134;11.576;2023-02-19T08:53:55;101277.22;;;8.70;91.33
18500;BME280;9379;52.134;11.576;2023-02-19T08:56:22;101273.38;;;8.87;90.76
18500;BME280;9379;52.134;11.576;2023-02-19T08:58:49;101274.47;;;8.46;90.49
18500;BME280;9379;52.134;11.576;2023-02-19T09:01:16;101281.31;;;8.87;89.52
18500;BME280;9379;52.134;11.576;2023-02-19T09:03:44;101287.16;;;8.67;89.05
18500;BME280;9379;52.134;11.576;2023-02-19T09:06:14;101301.81;;;8.72;88.31
18500;BME280;9379;52.134;11.576;2023-02-19T09:08:41;101299.25;;;8.58;89.83
18500;BME280;9379;52.134;11.576;2023-02-19T09:11:10;101297.00;;;8.77;89.52
18500;BME280;9379;52.134;11.576;2023-02-19T09:13:36;101308.06;;;8.71;88.47
18500;BME280;9379;52.134;11.576;2023-02-19T09:16:04;101316.31;;;8.67;90.41
18500;BME280;9379;52.134;11.576;2023-02-19T09:18:31;101308.63;;;8.24;89.04
18500;BME280;9379;52.134;11.576;2023-02-19T09:20:59;101318.59;;;7.94;88.50
18500;BME280;9379;52.134;11.576;2023-02-19T09:23:26;101326.28;;;8.63;88.83
18500;BME280;9379;52.134;11.576;2023-02-19T09:25:56;101322.38;;;8.94;88.35
18500;BME280;9379;52.134;11.576;2023-02-19T09:28:25;101321.41;;;8.95;87.25
18500;BME280;9379;52.134;11.576;2023-02-19T09:30:53;101316.66;;;8.23;89.59
18500;BME280;9379;52.134;11.576;2023-02-19T09:33:19;101325.78;;;8.31;89.54
18500;BME280;9379;52.134;11.576;2023-02-19T09:35:46;101323.84;;;8.20;90.87
18500;BME280;9379;52.134;11.576;2023-02-19T09:38:13;101330.28;;;8.56;88.22
18500;BME280;9379;52.134;11.576;2023-02-19T09:40:40;101345.09;;;8.06;89.06
18500;BME280;9379;52.134;11.576;2023-02-19T09:43:07;101341.00;;;8.55;88.44
18500;BME280;9379;52.134;11.576;2023-02-19T09:45:39;101343.03;;;9.02;86.53
18500;BME280;9379;52.134;11.576;2023-02-19T09:48:06;101354.69;;;8.61;87.31
18500;BME280;9379;52.134;11.576;2023-02-19T09:50:39;101350.91;;;9.03;87.70
18500;BME280;9379;52.134;11.576;2023-02-19T09:53:13;101358.53;;;8.70;86.62
18500;BME280;9379;52.134;11.576;2023-02-19T09:55:42;101360.38;;;8.42;87.05
18500;BME280;9379;52.134;11.576;2023-02-19T09:58:17;101368.28;;;8.69;87.23
18500;BME280;9379;52.134;11.576;2023-02-19T10:00:51;101374.09;;;8.87;87.32
18500;BME280;9379;52.134;11.576;2023-02-19T10:03:22;101372.28;;;8.23;86.94
18500;BME280;9379;52.134;11.576;2023-02-19T10:05:55;101379.69;;;8.30;87.76
18500;BME280;9379;52.134;11.576;2023-02-19T10:08:23;101363.28;;;9.16;86.32
18500;BME280;9379;52.134;11.576;2023-02-19T10:10:51;101373.69;;;8.81;85.46
18500;BME280;9379;52.134;11.576;2023-02-19T10:13:20;101385.25;;;8.92;85.42
18500;BME280;9379;52.134;11.576;2023-02-19T10:15:51;101382.59;;;9.05;85.30
18500;BME280;9379;52.134;11.576;2023-02-19T10:18:21;101379.72;;;9.21;85.84
18500;BME280;9379;52.134;11.576;2023-02-19T10:20:50;101378.78;;;8.96;84.04
18500;BME280;9379;52.134;11.576;2023-02-19T10:23:17;101405.72;;;9.16;83.28
18500;BME280;9379;52.134;11.576;2023-02-19T10:25:46;101406.88;;;9.24;82.27
18500;BME280;9379;52.134;11.576;2023-02-19T10:28:16;101392.25;;;9.06;83.34
18500;BME280;9379;52.134;11.576;2023-02-19T10:30:47;101395.06;;;8.65;83.12
18500;BME280;9379;52.134;11.576;2023-02-19T10:33:18;101419.72;;;9.18;83.21
18500;BME280;9379;52.134;11.576;2023-02-19T10:35:56;101425.53;;;8.97;81.89
18500;BME280;9379;52.134;11.576;2023-02-19T10:38:25;101430.41;;;8.91;82.11
18500;BME280;9379;52.134;11.576;2023-02-19T10:41:01;101419.72;;;9.43;83.09
18500;BME280;9379;52.134;11.576;2023-02-19T10:43:32;101424.81;;;8.95;81.24
18500;BME280;9379;52.134;11.576;2023-02-19T10:46:04;101435.50;;;9.45;80.65
18500;BME280;9379;52.134;11.576;2023-02-19T10:48:35;101438.50;;;9.40;80.95
18500;BME280;9379;52.134;11.576;2023-02-19T10:51:05;101438.88;;;9.85;79.63
18500;BME280;9379;52.134;11.576;2023-02-19T10:53:40;101444.97;;;9.98;79.06
18500;BME280;9379;52.134;11.576;2023-02-19T10:56:09;101461.16;;;9.82;75.67
18500;BME280;9379;52.134;11.576;2023-02-19T10:58:37;101447.84;;;9.07;78.32
18500;BME280;9379;52.134;11.576;2023-02-19T11:01:15;101456.63;;;9.21;79.20
18500;BME280;9379;52.134;11.576;2023-02-19T11:03:46;101439.13;;;9.56;75.39
18500;BME280;9379;52.134;11.576;2023-02-19T11:06:14;101461.22;;;9.93;76.04
18500;BME280;9379;52.134;11.576;2023-02-19T11:08:49;101480.41;;;9.73;77.19
18500;BME280;9379;52.134;11.576;2023-02-19T11:11:22;101460.44;;;10.41;76.11
18500;BME280;9379;52.134;11.576;2023-02-19T11:13:50;101484.19;;;10.18;76.40
18500;BME280;9379;52.134;11.576;2023-02-19T11:16:17;101480.47;;;10.58;74.56
18500;BME280;9379;52.134;11.576;2023-02-19T11:18:52;101484.50;;;9.90;71.84
18500;BME280;9379;52.134;11.576;2023-02-19T11:21:26;101490.94;;;10.24;72.28
18500;BME280;9379;52.134;11.576;2023-02-19T11:23:58;101495.78;;;10.17;73.39
18500;BME280;9379;52.134;11.576;2023-02-19T11:26:26;101513.59;;;9.91;74.31
18500;BME280;9379;52.134;11.576;2023-02-19T11:28:58;101504.97;;;10.50;74.55
18500;BME280;9379;52.134;11.576;2023-02-19T11:31:26;101498.25;;;10.33;72.40
18500;BME280;9379;52.134;11.576;2023-02-19T11:33:58;101502.19;;;10.15;73.38
18500;BME280;9379;52.134;11.576;2023-02-19T11:36:28;101489.97;;;10.25;74.42
18500;BME280;9379;52.134;11.576;2023-02-19T11:38:56;101492.19;;;10.55;73.11
18500;BME280;9379;52.134;11.576;2023-02-19T11:41:33;101494.44;;;10.72;73.26
18500;BME280;9379;52.134;11.576;2023-02-19T11:44:15;101498.44;;;9.81;73.12
18500;BME280;9379;52.134;11.576;2023-02-19T11:46:48;101489.19;;;9.86;74.86
18500;BME280;9379;52.134;11.576;2023-02-19T11:49:28;101491.41;;;10.42;73.94
18500;BME280;9379;52.134;11.576;2023-02-19T11:52:15;101485.06;;;10.79;72.08
18500;BME280;9379;52.134;11.576;2023-02-19T11:54:49;101487.69;;;10.44;73.52
18500;BME280;9379;52.134;11.576;2023-02-19T11:57:34;101494.13;;;10.88;71.11
18500;BME280;9379;52.134;11.576;2023-02-19T12:00:22;101497.53;;;10.55;72.08
18500;BME280;9379;52.134;11.576;2023-02-19T12:03:16;101503.66;;;10.32;71.95
18500;BME280;9379;52.134;11.576;2023-02-19T12:06:02;101510.03;;;10.53;72.20
18500;BME280;9379;52.134;11.576;2023-02-19T12:12:07;101511.59;;;10.68;70.48
18500;BME280;9379;52.134;11.576;2023-02-19T12:17:59;101517.81;;;10.07;71.71
18500;BME280;9379;52.134;11.576;2023-02-19T12:20:33;101525.06;;;10.78;71.97
18500;BME280;9379;52.134;11.576;2023-02-19T12:23:23;101516.78;;;10.70;70.93
18500;BME280;9379;52.134;11.576;2023-02-19T12:25:57;101527.53;;;10.44;71.41
18500;BME280;9379;52.134;11.576;2023-02-19T12:28:38;101522.22;;;10.92;70.37
18500;BME280;9379;52.134;11.576;2023-02-19T12:31:36;101515.69;;;10.96;69.44
18500;BME280;9379;52.134;11.576;2023-02-19T12:34:16;101522.03;;;10.82;68.79
18500;BME280;9379;52.134;11.576;2023-02-19T12:36:55;101529.19;;;10.58;70.14
18500;BME280;9379;52.134;11.576;2023-02-19T12:39:33;101538.75;;;10.24;71.33
18500;BME280;9379;52.134;11.576;2023-02-19T12:42:09;101536.22;;;10.10;72.22
18500;BME280;9379;52.134;11.576;2023-02-19T12:44:40;101526.03;;;10.40;72.43
18500;BME280;9379;52.134;11.576;2023-02-19T12:47:12;101538.41;;;10.16;70.69
18500;BME280;9379;52.134;11.576;2023-02-19T12:49:43;101532.44;;;10.38;69.99
18500;BME280;9379;52.134;11.576;2023-02-19T12:52:18;101537.06;;;10.23;68.37
18500;BME280;9379;52.134;11.576;2023-02-19T12:54:52;101511.75;;;10.05;69.47
18500;BME280;9379;52.134;11.576;2023-02-19T12:57:21;101533.81;;;10.18;71.23
18500;BME280;9379;52.134;11.576;2023-02-19T12:59:52;101536.31;;;10.08;70.93
18500;BME280;9379;52.134;11.576;2023-02-19T13:02:24;101549.81;;;9.80;69.36
18500;BME280;9379;52.134;11.576;2023-02-19T13:04:56;101533.69;;;9.83;68.79
18500;BME280;9379;52.134;11.576;2023-02-19T13:07:29;101533.41;;;10.37;69.11
18500;BME280;9379;52.134;11.576;2023-02-19T13:10:21;101555.66;;;10.23;69.48
18500;BME280;9379;52.134;11.576;2023-02-19T13:12:52;101557.16;;;10.02;68.44
18500;BME280;9379;52.134;11.576;2023-02-19T13:15:25;101544.19;;;9.97;68.64
18500;BME280;9379;52.134;11.576;2023-02-19T13:17:55;101553.75;;;10.00;69.83